LERS/REU METAR and TAF weather

Enter ICAO airport designator
Station Type Date Time Source
LERS METAR 2019/12/07 15:00 UTC NOAA

LERS 071500Z VRB01KT CAVOK 16/09 Q1021


Station Type Date Time Source
LERS Decoded METAR 2019/12/07 15:00 UTC NOAA

Reus / Aeropuerto, Spain (LERS) 41-09N 001-10E 76M
Dec 07, 2019 - 10:00 AM EST / 2019.12.07 1500 UTC
Wind: Variable at 1 MPH (1 KT):0
Visibility: greater than 7 mile(s):0
Temperature: 60 F (16 C)
Dew Point: 48 F (9 C)
Relative Humidity: 63%
Pressure (altimeter): 30.15 in. Hg (1021 hPa)
ob: LERS 071500Z VRB01KT CAVOK 16/09 Q1021
cycle: 15

Station Type Date Time Source
LERS TAF 2019/12/07 15:31 UTC NOAA

TAF LERS 071400Z 0715/0815 VRB03KT 9999 FEW040 TX17/0813Z TN05/0806Z PROB30
TEMPO 0720/0808 4000 BR BKN014

Example: see airport list